Time;durP1;ratioP1;P1;durP2;ratioP2;P2;SDS_P1;SDS_P2;PMS_P1;PMS_P2;Temp;Humidity;BMP_temperature;BMP_pressure;BME280_temperature;BME280_humidity;BME280_pressure;Samples;Min_cycle;Max_cycle;Signal;HPM_P1;HPM_P2
2022/08/24 00:06:25;;;;;;;5.23;2.07;;;22.20;61.90;;;;;;21077808;28;20238;-70
2022/08/24 00:16:28;;;;;;;5.30;2.30;;;22.00;62.60;;;;;;21077198;28;20199;-68
2022/08/24 00:26:29;;;;;;;4.30;2.87;;;21.80;63.30;;;;;;21073944;28;20241;-67
2022/08/24 00:36:33;;;;;;;3.50;2.13;;;21.70;64.90;;;;;;21084549;28;20267;-69
2022/08/24 00:46:37;;;;;;;3.87;2.40;;;21.60;65.90;;;;;;21091411;28;20565;-68
2022/08/24 00:56:45;;;;;;;5.27;2.50;;;21.40;68.10;;;;;;21090586;28;20207;-70
2022/08/24 01:06:48;;;;;;;4.20;2.43;;;21.30;69.50;;;;;;21090178;28;20234;-69
2022/08/24 01:27:10;;;;;;;7.50;2.13;;;21.00;71.10;;;;;;21088181;28;20265;-68
2022/08/24 01:37:12;;;;;;;3.40;2.23;;;20.90;72.50;;;;;;21087775;28;20206;-68
2022/08/24 01:47:15;;;;;;;3.70;2.20;;;20.70;72.30;;;;;;21086068;28;20236;-67
2022/08/24 01:57:18;;;;;;;2.47;2.17;;;20.50;73.00;;;;;;21085844;28;20658;-66
2022/08/24 02:07:20;;;;;;;3.40;2.30;;;20.30;73.60;;;;;;21085353;28;20567;-69
2022/08/24 02:17:21;;;;;;;6.67;2.87;;;20.30;74.10;;;;;;21084238;28;20726;-68
2022/08/24 02:27:23;;;;;;;6.33;2.73;;;20.20;74.60;;;;;;21080951;28;20295;-67
2022/08/24 02:37:25;;;;;;;3.53;2.27;;;20.20;75.00;;;;;;21081990;28;20662;-67
2022/08/24 02:47:26;;;;;;;5.30;2.53;;;19.80;75.80;;;;;;21081794;28;20235;-67
2022/08/24 02:57:40;;;;;;;3.27;2.47;;;19.60;76.70;;;;;;21080266;28;20217;-67
2022/08/24 03:07:41;;;;;;;3.50;2.50;;;19.70;77.30;;;;;;21080445;28;20237;-67
2022/08/24 03:17:43;;;;;;;4.23;2.70;;;19.60;77.80;;;;;;21079809;28;20213;-68
2022/08/24 03:27:45;;;;;;;8.33;5.20;;;19.40;78.50;;;;;;21078852;28;20246;-68
2022/08/24 03:37:49;;;;;;;5.87;2.87;;;19.30;79.30;;;;;;21079024;28;20204;-69
2022/08/24 03:47:52;;;;;;;4.40;2.80;;;19.20;80.00;;;;;;21078210;28;20238;-68
2022/08/24 03:57:53;;;;;;;3.90;3.20;;;19.10;80.30;;;;;;21077905;28;20253;-68
2022/08/24 04:07:55;;;;;;;5.27;2.60;;;19.00;80.90;;;;;;21081425;28;20234;-68
2022/08/24 04:17:57;;;;;;;4.73;3.07;;;18.70;81.80;;;;;;21093675;28;20249;-67
2022/08/24 04:27:58;;;;;;;5.27;3.23;;;18.70;82.50;;;;;;21091401;28;20643;-67
2022/08/24 04:38:00;;;;;;;3.93;3.07;;;18.70;82.80;;;;;;21091166;28;20213;-68
2022/08/24 04:48:02;;;;;;;10.33;3.83;;;18.70;83.50;;;;;;21090848;28;20226;-68
2022/08/24 04:58:04;;;;;;;7.47;3.77;;;18.60;84.00;;;;;;21090461;28;20425;-68
2022/08/24 05:08:05;;;;;;;8.27;4.27;;;18.70;84.30;;;;;;21090008;28;20246;-69
2022/08/24 05:18:07;;;;;;;16.63;4.17;;;18.70;84.80;;;;;;21087608;28;20210;-68
2022/08/24 05:28:09;;;;;;;15.87;5.77;;;18.60;85.10;;;;;;21087932;28;20252;-69
2022/08/24 05:38:11;;;;;;;16.33;3.67;;;18.60;85.50;;;;;;21087203;28;20212;-72
2022/08/24 05:48:13;;;;;;;12.80;4.23;;;18.90;85.90;;;;;;21084736;28;20281;-69
2022/08/24 05:58:15;;;;;;;18.87;5.10;;;19.00;85.80;;;;;;21084909;28;20208;-72
2022/08/24 06:08:34;;;;;;;11.43;4.87;;;19.30;86.00;;;;;;21083957;28;20231;-71
2022/08/24 06:18:41;;;;;;;8.77;4.43;;;19.60;85.90;;;;;;21083433;28;20209;-70
2022/08/24 06:28:43;;;;;;;6.07;5.30;;;19.80;85.50;;;;;;21080404;28;20246;-68
2022/08/24 06:38:45;;;;;;;7.03;4.80;;;20.20;85.10;;;;;;21081618;28;20839;-67
2022/08/24 06:48:48;;;;;;;10.40;4.97;;;20.50;84.30;;;;;;21081729;28;20567;-67
2022/08/24 06:58:50;;;;;;;4.80;3.80;;;20.70;83.80;;;;;;21080177;28;20635;-70
2022/08/24 07:08:52;;;;;;;5.97;3.97;;;20.90;83.50;;;;;;21077927;28;20237;-69
2022/08/24 07:18:54;;;;;;;4.83;4.00;;;21.30;82.80;;;;;;21078770;28;20731;-69
2022/08/24 07:29:05;;;;;;;9.80;4.20;;;21.50;82.10;;;;;;21077825;28;20249;-68
2022/08/24 07:39:08;;;;;;;6.47;3.73;;;21.70;81.70;;;;;;21075663;28;20259;-69
2022/08/24 07:49:11;;;;;;;6.33;3.77;;;21.90;81.20;;;;;;21110458;28;20233;-75
2022/08/24 07:59:34;;;;;;;8.43;4.20;;;22.20;80.90;;;;;;21146834;28;20230;-74
2022/08/24 08:09:37;;;;;;;9.23;4.33;;;22.40;80.60;;;;;;21074162;28;20230;-74
2022/08/24 08:19:39;;;;;;;8.20;3.60;;;22.70;80.10;;;;;;21076693;28;20666;-72
2022/08/24 08:29:42;;;;;;;9.33;3.93;;;23.00;79.70;;;;;;21074287;28;20253;-72
2022/08/24 08:39:44;;;;;;;4.80;3.80;;;23.20;79.00;;;;;;21074046;28;20217;-71
2022/08/24 08:50:12;;;;;;;8.60;6.60;;;23.50;78.30;;;;;;21075074;28;20230;-71
2022/08/24 09:00:30;;;;;;;10.37;9.33;;;23.80;77.70;;;;;;21085414;28;20207;-73
2022/08/24 09:11:00;;;;;;;4.20;3.30;;;24.10;77.00;;;;;;21088018;28;20671;-72
2022/08/24 09:21:26;;;;;;;7.30;3.90;;;24.40;76.30;;;;;;21087736;28;20206;-72
2022/08/24 09:31:50;;;;;;;9.90;3.20;;;24.60;75.40;;;;;;21086697;28;20295;-70
2022/08/24 09:42:26;;;;;;;7.73;3.73;;;24.80;74.20;;;;;;21085871;28;20308;-73
2022/08/24 09:53:03;;;;;;;5.27;3.07;;;25.10;73.40;;;;;;21084065;28;20218;-68
2022/08/24 10:03:14;;;;;;;6.90;3.83;;;25.10;72.10;;;;;;21118075;28;20233;-70
2022/08/24 10:13:38;;;;;;;4.27;3.00;;;25.30;71.10;;;;;;21106271;28;20202;-67
2022/08/24 10:24:07;;;;;;;7.57;3.20;;;25.60;69.90;;;;;;21149373;28;20238;-73
2022/08/24 10:34:27;;;;;;;7.73;3.30;;;25.80;68.40;;;;;;21079938;28;20703;-72
2022/08/24 10:44:35;;;;;;;3.70;2.83;;;26.00;66.70;;;;;;21081430;28;20234;-71
2022/08/24 10:54:37;;;;;;;6.23;2.63;;;26.10;65.00;;;;;;21075554;28;20214;-73
2022/08/24 11:04:40;;;;;;;4.37;2.67;;;26.20;63.50;;;;;;21164009;28;20276;-66
2022/08/24 11:14:47;;;;;;;8.37;3.03;;;26.40;61.90;;;;;;21105720;28;20247;-72
2022/08/24 11:24:52;;;;;;;6.47;2.50;;;26.60;60.10;;;;;;21161529;28;20282;-72
2022/08/24 11:34:54;;;;;;;3.13;2.50;;;26.80;58.70;;;;;;21160738;28;20230;-70
2022/08/24 11:45:07;;;;;;;3.43;2.47;;;27.00;57.70;;;;;;21144591;28;20334;-70
2022/08/24 11:55:43;;;;;;;4.80;2.47;;;27.30;56.30;;;;;;21076751;28;20248;-70
2022/08/24 12:05:53;;;;;;;2.93;2.30;;;27.60;54.90;;;;;;21074349;28;20233;-72
2022/08/24 12:16:10;;;;;;;6.28;2.28;;;28.00;54.10;;;;;;21057572;28;20203;-71
2022/08/24 12:26:41;;;;;;;2.78;2.22;;;28.30;53.00;;;;;;21073910;28;20311;-72
2022/08/24 12:36:58;;;;;;;9.95;2.33;;;28.50;51.70;;;;;;21085670;28;20214;-71
2022/08/24 12:46:59;;;;;;;5.25;1.98;;;28.70;50.70;;;;;;21089010;28;20294;-72
2022/08/24 12:57:26;;;;;;;3.20;1.70;;;28.70;50.10;;;;;;21104039;28;20251;-69
2022/08/24 13:07:36;;;;;;;6.68;2.30;;;28.70;49.30;;;;;;21102847;28;20755;-73
2022/08/24 13:17:41;;;;;;;5.50;1.85;;;28.60;48.60;;;;;;21142516;28;20201;-70
2022/08/24 13:27:44;;;;;;;9.52;2.78;;;28.70;48.00;;;;;;21171854;28;20729;-66
2022/08/24 13:38:24;;;;;;;4.82;2.35;;;28.70;47.40;;;;;;21106880;28;20233;-68
2022/08/24 13:48:46;;;;;;;7.10;2.70;;;28.60;48.00;;;;;;21085952;28;20855;-68
2022/08/24 13:59:27;;;;;;;3.72;2.08;;;28.50;49.00;;;;;;21084951;28;20206;-67
2022/08/24 14:10:07;;;;;;;13.02;2.53;;;28.60;47.80;;;;;;21032940;28;20234;-73
2022/08/24 14:20:29;;;;;;;2.42;1.75;;;29.60;45.90;;;;;;21082468;28;20573;-74
2022/08/24 14:30:32;;;;;;;4.80;1.80;;;33.20;39.80;;;;;;21082082;28;20238;-72
2022/08/24 14:40:56;;;;;;;3.67;1.80;;;35.00;37.00;;;;;;21081713;28;20596;-73
2022/08/24 14:51:15;;;;;;;4.97;1.70;;;32.10;39.00;;;;;;21081587;28;20721;-71
2022/08/24 15:01:48;;;;;;;2.10;1.90;;;30.70;39.90;;;;;;21062638;28;20253;-71
2022/08/24 15:11:55;;;;;;;3.53;1.90;;;30.10;40.70;;;;;;21075315;28;20658;-73
2022/08/24 15:22:01;;;;;;;5.65;1.70;;;29.80;41.40;;;;;;21079696;28;20267;-71
2022/08/24 15:32:10;;;;;;;3.80;1.90;;;29.50;41.70;;;;;;21078066;28;20226;-75
2022/08/24 15:42:14;;;;;;;2.78;2.13;;;29.20;41.50;;;;;;21076450;28;20241;-73
2022/08/24 15:52:46;;;;;;;6.03;1.90;;;29.00;41.40;;;;;;21078604;28;20218;-74
2022/08/24 16:02:48;;;;;;;2.70;2.13;;;28.90;41.50;;;;;;21080053;28;20758;-72
2022/08/24 16:12:50;;;;;;;3.05;1.98;;;28.90;41.80;;;;;;21094457;28;20214;-70
2022/08/24 16:22:58;;;;;;;5.78;3.78;;;28.70;42.20;;;;;;21093786;28;20280;-73
2022/08/24 16:33:01;;;;;;;2.10;1.90;;;28.50;42.50;;;;;;21093557;28;20234;-71
2022/08/24 16:43:06;;;;;;;4.72;2.20;;;28.40;42.90;;;;;;21092037;28;20244;-71
2022/08/24 16:53:09;;;;;;;5.10;2.80;;;28.30;43.20;;;;;;21091345;28;20702;-73
2022/08/24 17:03:12;;;;;;;4.77;3.07;;;28.20;43.40;;;;;;21091105;28;20238;-75
2022/08/24 17:13:15;;;;;;;6.83;4.53;;;28.10;43.90;;;;;;21089274;28;20198;-71
2022/08/24 17:23:39;;;;;;;3.77;3.33;;;28.00;45.00;;;;;;21089084;28;20234;-72
2022/08/24 17:33:41;;;;;;;3.27;2.63;;;27.90;44.80;;;;;;21105590;28;20230;-73
2022/08/24 17:43:44;;;;;;;5.70;2.80;;;27.70;45.30;;;;;;21169696;28;20234;-76
2022/08/24 17:53:46;;;;;;;6.37;2.70;;;27.60;45.90;;;;;;21170819;28;20585;-72
2022/08/24 18:03:49;;;;;;;4.43;3.03;;;27.40;46.50;;;;;;21170363;28;20723;-72
2022/08/24 18:13:51;;;;;;;5.27;2.67;;;27.20;47.20;;;;;;21169018;28;20297;-71
2022/08/24 18:23:53;;;;;;;4.77;2.93;;;27.10;48.00;;;;;;21167995;28;20233;-72
2022/08/24 18:33:55;;;;;;;4.83;3.43;;;26.90;48.70;;;;;;21168166;28;20233;-68
2022/08/24 18:43:57;;;;;;;4.93;3.03;;;26.70;49.60;;;;;;21166461;28;20716;-72
2022/08/24 18:54:06;;;;;;;7.23;3.77;;;26.50;50.30;;;;;;21164529;28;20209;-70
2022/08/24 19:04:07;;;;;;;10.50;3.25;;;26.30;50.90;;;;;;21161671;28;20458;-69
2022/08/24 19:14:16;;;;;;;8.77;3.50;;;26.60;53.10;;;;;;21162158;28;20217;-69
2022/08/24 19:24:22;;;;;;;8.00;4.07;;;26.20;53.20;;;;;;21162129;28;20237;-70
2022/08/24 19:34:24;;;;;;;5.47;3.50;;;26.10;53.50;;;;;;21142595;28;20234;-72
2022/08/24 19:54:54;;;;;;;6.23;3.50;;;25.90;54.70;;;;;;21125145;28;20202;-71
2022/08/24 20:04:55;;;;;;;5.37;3.60;;;25.70;55.30;;;;;;21144276;28;20234;-74
2022/08/24 20:14:57;;;;;;;5.33;3.90;;;25.60;56.00;;;;;;21077421;28;20667;-71
2022/08/24 20:24:59;;;;;;;5.80;3.67;;;25.50;56.70;;;;;;21076758;28;20563;-72
2022/08/24 20:35:01;;;;;;;6.03;3.80;;;25.30;57.30;;;;;;21076635;28;20230;-73
2022/08/24 20:45:05;;;;;;;5.67;3.90;;;25.10;57.90;;;;;;21124575;28;20268;-69
2022/08/24 20:55:09;;;;;;;8.97;4.27;;;25.00;58.80;;;;;;21171660;28;20209;-70
2022/08/24 21:05:10;;;;;;;6.37;4.33;;;24.90;59.40;;;;;;21175269;28;20290;-70
2022/08/24 21:15:12;;;;;;;7.23;4.53;;;24.80;60.00;;;;;;21174227;28;20210;-73
2022/08/24 21:25:16;;;;;;;6.93;4.40;;;24.70;60.70;;;;;;21173371;28;20234;-73
2022/08/24 21:35:18;;;;;;;9.87;4.80;;;24.40;62.00;;;;;;21173000;28;20230;-74
2022/08/24 21:45:20;;;;;;;8.50;4.63;;;24.10;63.80;;;;;;21121088;28;20590;-69
2022/08/24 21:55:22;;;;;;;7.13;4.70;;;24.00;65.10;;;;;;21086665;28;20209;-72
2022/08/24 22:05:24;;;;;;;7.87;4.70;;;23.80;66.20;;;;;;21085431;28;20242;-69
2022/08/24 22:15:25;;;;;;;6.07;4.83;;;23.70;67.70;;;;;;21085105;28;20211;-71
2022/08/24 22:25:28;;;;;;;7.70;4.83;;;23.50;68.60;;;;;;21081026;28;20457;-71
2022/08/24 22:35:30;;;;;;;12.23;5.10;;;23.70;69.70;;;;;;21083863;28;20253;-71
2022/08/24 22:45:48;;;;;;;6.57;4.90;;;23.30;70.20;;;;;;21132775;28;20260;-72
2022/08/24 22:55:50;;;;;;;6.10;5.00;;;23.10;71.00;;;;;;21080199;28;20210;-72
2022/08/24 23:05:51;;;;;;;7.50;5.37;;;23.00;72.30;;;;;;21080960;28;20230;-70
2022/08/24 23:15:53;;;;;;;7.30;5.30;;;22.90;73.50;;;;;;21079596;28;20203;-70
2022/08/24 23:25:55;;;;;;;6.90;5.80;;;22.90;74.60;;;;;;21079705;28;20294;-70
2022/08/24 23:35:57;;;;;;;7.70;4.90;;;22.70;75.70;;;;;;21079802;28;20206;-70
2022/08/24 23:46:02;;;;;;;6.87;5.07;;;22.70;76.70;;;;;;21078921;28;20276;-70
2022/08/24 23:56:09;;;;;;;6.53;5.20;;;22.60;76.40;;;;;;21078588;28;20226;-68
